Lucenec, Slovakia

3:47 AM CET on December 21, 2014 (GMT +0100)
Lucenec Rubanisko II | Change Station
CLOSE
Current Station
Personal Weather Station
Location: Lucenec, Slovakia
Elevation: 699 ft
Nearby Weather Stations

Elev 699 ft 48.34 °N, 19.65 °E | Updated 1 minute ago

Overcast
Overcast
41.4 °F
Feels Like 33 °F
N
18.0
Wind Variable Wind from WNW
Gusts 29.0 mph

Today
High -- | Low -- °F
--% Chance of Precip.
Yesterday
High -- | Low -- °F
Precip. -- in
7:29 AM 3:48 PM
Waning Crescent, 1% visible
Pressure 29.86 in
Visibility 6.2 miles
Clouds Few 900 ft
Mostly Cloudy 6600 ft
Windchill 33 °F
Dew Point 32 °F
Humidity 68%
Rainfall 0.00 in
Snow Depth Not available.
UV 0 out of 12
Pollen Not available.
Air Quality Not available.
Flu Activity Not available.
METAR LZTT 210230Z 26020KT 9999 -SHSN FEW009 BKN066 00/M01 Q1011

More Conditions Fewer Conditions

Pressure 29.86 in
Visibility 6.2 miles
Clouds Few 900 ft
Mostly Cloudy 6600 ft
Windchill 33 °F
Dew Point 32 °F
Humidity 68%
Rainfall 0.00 in
Snow Depth Not available.
UV 0 out of 12
Pollen Not available.
Air Quality Not available.
Flu Activity Not available.
METAR LZTT 210230Z 26020KT 9999 -SHSN FEW009 BKN066 00/M01 Q1011

More Conditions Fewer Conditions

10-Day Weather Forecast

Almanac

Astronomy

Dec. 21, 2014 Rise Set
Actual Time
Civil Twilight
Nautical Twilight
Astronomical Twilight
Moon
Length of Visible Light
Length of Day
Tomorrow will be .
, % of the Moon is Illuminated

Today's Extremes

Country Highs Country Lows

Community

WunderPhotos

Upload Photos

1,779,348 photos uploaded!

WunderBlogs® & News

Nearby

Air Quality

  Air Quality AQ Index Pollutant
Not available.

Snow Depth

Station Depth Elevation

Earthquake Activity

City Distance Mag. Time & Date
Minimum magnitude displayed is 2.5.

Coastal Water Temperatures

Place Temperature

Nearby Weather Stations